Thunder radar more information blitzortung!


Radar de pluja more information rain snow radar


Visita la nostra xarxa de llocs de meteo:

Template documentation
and downloads

And another site



No particular awareness of the weather is required.    There are no Weather-warnings

Pagina Historial Weather Underground text

Diari Resum Octubre 25, 2017 Unitats:  Imperial    Mètric   Tant
« Previous Dia
SegĂźent Dia »
Diari Setmana Mensual Anual Personalitzada
  Maxima: Minima: Media:
Temperatura: TemperatureC °F 11.0 °F 18.5 °F
Punt de rosada: DewpointC °F 6.7 °F 11.9 °F
Humitat: Humidity % 51 % 66 %
Wind Speed: WindSpeedKMH mph 0.0 mph 3.7 mph
RĂ fegues de vent: WindSpeedGustKMH mph - -
Vent:- - SSE
Pression baro: PressurehPa in 1022.9 in -
Precipitacions: 0.0 in    
Historical Graphs
 
 
Dades de taula per Octubre 25, 2017
Temps Temperatura Punt de rosada Pression baro Vent Wind Speed RĂ fegues de vent Humitat Rainfall Rate (Hourly)
TemperatureC °F DewpointC °F PressurehPa in Calm     Humidity % HourlyPrecipMM in
00:04 14.4 °F 7.4 °F 1023.9 in Calm     63 % 0.0 in
00:05 12.0 °F 7.3 °F 1023.9 in Calm   1.6 mph 73 % 0.0 in
00:15 12.1 °F 7.2 °F 1023.9 in Calm     72 % 0.0 in
00:25 12.4 °F 7.3 °F 1023.9 in West 1.6 mph 3.2 mph 71 % 0.0 in
00:45 12.4 °F 7.3 °F 1022.9 in Calm   3.2 mph 71 % 0.0 in
00:55 12.4 °F 7.5 °F 1022.9 in Calm   1.6 mph 72 % 0.0 in
01:05 12.2 °F 7.3 °F 1022.9 in Calm     72 % 0.0 in
01:15 12.1 °F 7.2 °F 1023.9 in Calm     72 % 0.0 in
01:25 11.8 °F 7.1 °F 1023.9 in Calm     73 % 0.0 in
01:35 11.7 °F 7.0 °F 1023.9 in Calm     73 % 0.0 in
01:45 11.6 °F 6.9 °F 1023.9 in Calm     73 % 0.0 in
01:55 11.6 °F 6.9 °F 1023.9 in WNW 3.2 mph 3.2 mph 73 % 0.0 in
02:05 11.3 °F 6.8 °F 1023.9 in WSW 1.6 mph 3.2 mph 74 % 0.0 in
02:15 11.3 °F 6.8 °F 1023.9 in SW 1.6 mph 3.2 mph 74 % 0.0 in
02:25 11.3 °F 6.8 °F 1023.9 in SW 3.2 mph 4.8 mph 74 % 0.0 in
02:35 11.3 °F 7.0 °F 1023.9 in Calm   1.6 mph 75 % 0.0 in
02:45 11.3 °F 7.0 °F 1023.9 in Calm     75 % 0.0 in
02:55 11.3 °F 7.0 °F 1023.9 in Calm   1.6 mph 75 % 0.0 in
03:05 11.4 °F 7.1 °F 1022.9 in NW 1.6 mph 3.2 mph 75 % 0.0 in
03:15 11.1 °F 6.8 °F 1023.9 in West 1.6 mph 3.2 mph 75 % 0.0 in
03:25 11.1 °F 6.8 °F 1023.9 in West 1.6 mph 3.2 mph 75 % 0.0 in
03:35 11.0 °F 6.7 °F 1023.9 in West 3.2 mph 3.2 mph 75 % 0.0 in
03:45 11.2 °F 7.1 °F 1023.9 in Calm   3.2 mph 76 % 0.0 in
03:55 11.5 °F 7.4 °F 1023.9 in WSW 1.6 mph 1.6 mph 76 % 0.0 in
04:05 11.8 °F 7.5 °F 1024.9 in WSW 1.6 mph 3.2 mph 75 % 0.0 in
04:15 12.0 °F 7.7 °F 1024.9 in SW 1.6 mph 3.2 mph 75 % 0.0 in
04:25 12.5 °F 8.2 °F 1024.9 in Calm   1.6 mph 75 % 0.0 in
04:35 13.7 °F 9.2 °F 1024.9 in Calm   3.2 mph 74 % 0.0 in
04:55 14.1 °F 9.1 °F 1026.0 in NE 4.8 mph 6.4 mph 72 % 0.0 in
05:05 14.4 °F 9.2 °F 1026.0 in NE 3.2 mph 4.8 mph 71 % 0.0 in
10:12 14.9 °F 9.5 °F 1026.0 in NNE 5.6 mph 5.6 mph 70 % 0.0 in
10:17 15.3 °F 9.8 °F 1026.0 in NNE 5.6 mph 5.6 mph 70 % 0.0 in
10:22 15.4 °F 9.9 °F 1026.0 in ENE 3.7 mph 3.7 mph 70 % 0.0 in
10:24 15.6 °F 10.2 °F 1026.0 in NNE 5.6 mph 5.6 mph 70 % 0.0 in
10:29 15.9 °F 10.2 °F 1026.0 in NE 5.6 mph 5.6 mph 69 % 0.0 in
10:34 16.2 °F 10.5 °F 1026.0 in NE 5.6 mph 5.6 mph 69 % 0.0 in
10:39 16.5 °F 10.6 °F 1026.0 in NNE 3.2 mph 3.2 mph 68 % 0.0 in
10:44 16.6 °F 10.7 °F 1026.0 in NE 5.6 mph 5.6 mph 68 % 0.0 in
10:49 16.6 °F 10.7 °F 1026.0 in NW 7.4 mph 7.4 mph 68 % 0.0 in
10:54 16.9 °F 10.7 °F 1026.0 in NE 7.4 mph 7.4 mph 67 % 0.0 in
10:59 16.8 °F 10.6 °F 1026.0 in NNE 9.3 mph 9.3 mph 67 % 0.0 in
11:04 17.0 °F 10.6 °F 1026.0 in ENE 7.4 mph 7.4 mph 66 % 0.0 in
11:09 17.4 °F 11.0 °F 1024.9 in NNE 5.6 mph 5.6 mph 66 % 0.0 in
11:14 17.7 °F 11.1 °F 1024.9 in ENE 5.6 mph 5.6 mph 65 % 0.0 in
11:19 17.8 °F 11.1 °F 1024.9 in NNE 5.6 mph 5.6 mph 65 % 0.0 in
11:24 18.0 °F 11.1 °F 1026.0 in ENE 3.7 mph 3.7 mph 64 % 0.0 in
11:29 18.3 °F 11.4 °F 1026.0 in ENE 6.1 mph 6.1 mph 64 % 0.0 in
11:34 18.1 °F 11.2 °F 1026.0 in NNW 5.6 mph 5.6 mph 64 % 0.0 in
11:39 18.5 °F 11.6 °F 1026.0 in NNE 3.7 mph 3.7 mph 64 % 0.0 in
11:44 19.0 °F 11.6 °F 1026.0 in NNW 2.3 mph 2.3 mph 62 % 0.0 in
11:49 19.4 °F 11.9 °F 1026.0 in NNE 3.7 mph   62 % 0.0 in
11:54 19.5 °F 12.0 °F 1026.0 in NW 3.7 mph 3.7 mph 62 % 0.0 in
11:59 19.7 °F 12.2 °F 1026.0 in NNE 5.0 mph 5.0 mph 62 % 0.0 in
12:04 19.8 °F 12.1 °F 1026.0 in NE 3.9 mph 3.9 mph 61 % 0.0 in
12:09 20.2 °F 12.2 °F 1026.0 in SW 3.7 mph   60 % 0.0 in
12:14 20.2 °F 11.9 °F 1026.0 in NE 3.9 mph 3.9 mph 59 % 0.0 in
12:19 19.9 °F 11.7 °F 1026.0 in ESE 7.4 mph 7.4 mph 59 % 0.0 in
12:24 20.2 °F 11.7 °F 1026.0 in ENE 7.4 mph 7.4 mph 58 % 0.0 in
12:29 20.4 °F 11.8 °F 1026.0 in East 5.8 mph 5.8 mph 58 % 0.0 in
12:34 20.2 °F 11.7 °F 1026.0 in ENE 6.1 mph 6.1 mph 58 % 0.0 in
12:39 20.3 °F 11.8 °F 1026.0 in East 3.7 mph 3.7 mph 58 % 0.0 in
12:44 20.6 °F 12.1 °F 1026.0 in NNE 7.4 mph 7.4 mph 58 % 0.0 in
12:49 20.7 °F 12.1 °F 1026.0 in ENE 5.6 mph 5.6 mph 58 % 0.0 in
12:54 21.0 °F 12.2 °F 1026.0 in ESE 3.7 mph 4.7 mph 57 % 0.0 in
12:59 20.9 °F 12.1 °F 1026.0 in NE 4.7 mph 4.7 mph 57 % 0.0 in
13:04 20.9 °F 11.8 °F 1026.0 in ENE 7.4 mph 7.4 mph 56 % 0.0 in
13:14 21.4 °F 12.0 °F 1026.0 in ESE 5.6 mph 5.6 mph 55 % 0.0 in
13:19 21.4 °F 12.0 °F 1026.0 in East 5.6 mph 5.6 mph 55 % 0.0 in
13:24 21.4 °F 12.0 °F 1026.0 in NE 7.4 mph 7.4 mph 55 % 0.0 in
13:29 21.4 °F 11.7 °F 1026.0 in NE 7.4 mph 7.4 mph 54 % 0.0 in
13:34 21.8 °F 12.1 °F 1026.0 in ESE 4.7 mph 4.7 mph 54 % 0.0 in
13:39 21.8 °F 12.1 °F 1024.9 in ENE 3.7 mph 3.7 mph 54 % 0.0 in
13:44 22.0 °F 12.0 °F 1024.9 in East 6.1 mph 6.1 mph 53 % 0.0 in
13:54 22.2 °F 12.4 °F 1024.9 in NNW 5.6 mph 5.6 mph 54 % 0.0 in
13:59 22.4 °F 12.3 °F 1024.9 in SE 5.6 mph 5.6 mph 53 % 0.0 in
14:04 22.6 °F 12.6 °F 1024.9 in WNW 4.2 mph 4.2 mph 53 % 0.0 in
14:09 22.5 °F 12.2 °F 1023.9 in ESE 5.6 mph 5.6 mph 52 % 0.0 in
14:14 22.5 °F 12.2 °F 1023.9 in SE 7.4 mph 7.4 mph 52 % 0.0 in
14:19 22.8 °F 12.7 °F 1023.9 in East 4.2 mph 4.2 mph 53 % 0.0 in
14:24 22.6 °F 12.2 °F 1023.9 in NW 5.6 mph 5.6 mph 52 % 0.0 in
14:29 22.8 °F 12.4 °F 1023.9 in ESE 7.4 mph 7.4 mph 52 % 0.0 in
14:34 22.6 °F 12.6 °F 1023.9 in East 3.9 mph 3.9 mph 53 % 0.0 in
14:39 22.8 °F 12.4 °F 1023.9 in SSE 6.1 mph 6.1 mph 52 % 0.0 in
14:44 23.2 °F 12.8 °F 1023.9 in ESE 5.6 mph 5.6 mph 52 % 0.0 in
14:49 23.2 °F 12.8 °F 1023.9 in West 5.8 mph 5.8 mph 52 % 0.0 in
14:51 23.2 °F 12.8 °F 1023.9 in WSW 5.6 mph 5.6 mph 52 % 0.0 in
14:56 23.5 °F 13.1 °F 1023.9 in ESE 3.9 mph 3.9 mph 52 % 0.0 in
15:01 23.4 °F 12.7 °F 1023.9 in SSE 7.4 mph 7.4 mph 51 % 0.0 in
15:06 23.4 °F 12.7 °F 1023.9 in ESE 7.4 mph 7.4 mph 51 % 0.0 in
15:11 23.1 °F 12.4 °F 1023.9 in ESE 7.4 mph 7.4 mph 51 % 0.0 in
15:16 23.1 °F 12.4 °F 1023.9 in ESE 3.7 mph 3.9 mph 51 % 0.0 in
15:21 23.2 °F 12.5 °F 1023.9 in East 5.6 mph 5.6 mph 51 % 0.0 in
15:31 23.3 °F 12.6 °F 1023.9 in East 5.8 mph 5.8 mph 51 % 0.0 in
15:36 23.3 °F 12.6 °F 1023.9 in East 7.4 mph 7.4 mph 51 % 0.0 in
15:41 23.3 °F 12.6 °F 1024.9 in South 5.6 mph 5.6 mph 51 % 0.0 in
15:46 23.4 °F 12.7 °F 1024.9 in ESE 7.4 mph 7.4 mph 51 % 0.0 in
15:51 23.3 °F 12.6 °F 1024.9 in South 7.4 mph 7.4 mph 51 % 0.0 in
15:56 23.4 °F 12.7 °F 1023.9 in East 5.0 mph 5.0 mph 51 % 0.0 in
16:01 23.6 °F 12.9 °F 1023.9 in ENE 2.3 mph   51 % 0.0 in
16:06 23.4 °F 12.7 °F 1023.9 in ESE 9.3 mph 9.3 mph 51 % 0.0 in
16:11 23.5 °F 12.8 °F 1023.9 in SE 5.6 mph 5.6 mph 51 % 0.0 in
16:16 23.6 °F 12.9 °F 1023.9 in ENE 7.4 mph 7.4 mph 51 % 0.0 in
16:21 23.3 °F 12.9 °F 1023.9 in SW 9.3 mph 9.3 mph 52 % 0.0 in
16:26 23.4 °F 13.3 °F 1023.9 in ENE 5.8 mph 5.8 mph 53 % 0.0 in
16:31 23.3 °F 13.2 °F 1023.9 in ESE 9.5 mph 9.5 mph 53 % 0.0 in
16:36 23.1 °F 13.3 °F 1023.9 in ENE 11.1 mph 11.1 mph 54 % 0.0 in
16:41 23.1 °F 13.6 °F 1023.9 in NNE 5.6 mph 5.6 mph 55 % 0.0 in
16:46 23.0 °F 13.7 °F 1023.9 in East 9.5 mph 9.5 mph 56 % 0.0 in
16:51 22.8 °F 13.6 °F 1023.9 in SE 11.1 mph 11.1 mph 56 % 0.0 in
16:56 22.8 °F 13.8 °F 1023.9 in ESE 9.3 mph 9.3 mph 57 % 0.0 in
17:01 22.6 °F 13.9 °F 1023.9 in East 9.3 mph 9.3 mph 58 % 0.0 in
17:06 22.6 °F 13.9 °F 1023.9 in East 9.3 mph 9.3 mph 58 % 0.0 in
17:11 22.5 °F 14.1 °F 1023.9 in ENE 11.1 mph 11.1 mph 59 % 0.0 in
17:16 22.3 °F 13.9 °F 1023.9 in ESE 9.3 mph 9.3 mph 59 % 0.0 in
17:21 22.2 °F 14.1 °F 1023.9 in ESE 10.0 mph 10.0 mph 60 % 0.0 in
17:26 22.2 °F 14.3 °F 1023.9 in ESE 9.3 mph 9.3 mph 61 % 0.0 in
17:31 22.2 °F 14.3 °F 1023.9 in ESE 9.3 mph 9.3 mph 61 % 0.0 in
17:36 22.1 °F 14.2 °F 1023.9 in SE 9.3 mph 9.3 mph 61 % 0.0 in
17:41 22.1 °F 14.5 °F 1023.9 in SE 5.8 mph 5.8 mph 62 % 0.0 in
17:46 22.1 °F 14.5 °F 1023.9 in East 7.4 mph 7.4 mph 62 % 0.0 in
17:51 22.0 °F 14.6 °F 1023.9 in East 6.1 mph 6.1 mph 63 % 0.0 in
17:56 22.0 °F 14.6 °F 1023.9 in ESE 7.9 mph 7.9 mph 63 % 0.0 in
18:01 22.0 °F 14.6 °F 1023.9 in SW 2.3 mph 2.3 mph 63 % 0.0 in
18:06 22.3 °F 14.7 °F 1023.9 in West 3.7 mph   62 % 0.0 in
18:11 22.3 °F 14.7 °F 1023.9 in WSW 1.9 mph 2.3 mph 62 % 0.0 in
18:21 22.3 °F 14.7 °F 1023.9 in NW 3.7 mph 3.7 mph 62 % 0.0 in
18:26 22.1 °F 14.5 °F 1022.9 in South 3.7 mph 3.7 mph 62 % 0.0 in
18:31 21.9 °F 14.3 °F 1022.9 in NW 3.7 mph 3.7 mph 62 % 0.0 in
18:36 21.5 °F 14.4 °F 1022.9 in NNE 3.7 mph   64 % 0.0 in
18:41 21.3 °F 14.2 °F 1023.9 in NNE 2.6 mph 2.6 mph 64 % 0.0 in
18:46 21.1 °F 14.3 °F 1023.9 in NNE 3.9 mph   65 % 0.0 in
18:51 20.8 °F 14.0 °F 1023.9 in SW 5.6 mph 5.6 mph 65 % 0.0 in
18:56 20.8 °F 14.0 °F 1023.9 in West 1.9 mph   65 % 0.0 in
19:01 20.6 °F 13.8 °F 1023.9 in West 3.9 mph 3.9 mph 65 % 0.0 in
19:06 20.4 °F 13.6 °F 1023.9 in SW 3.7 mph 3.7 mph 65 % 0.0 in
19:11 20.3 °F 13.5 °F 1023.9 in WSW 2.3 mph   65 % 0.0 in
19:16 20.1 °F 13.3 °F 1023.9 in WSW 3.7 mph 3.7 mph 65 % 0.0 in
19:21 19.9 °F 13.6 °F 1023.9 in West 2.6 mph 2.6 mph 67 % 0.0 in
19:26 19.8 °F 13.5 °F 1023.9 in WSW 4.2 mph 4.2 mph 67 % 0.0 in
19:31 19.7 °F 13.4 °F 1023.9 in WSW 3.7 mph 3.7 mph 67 % 0.0 in
19:36 19.5 °F 13.4 °F 1023.9 in NW 1.9 mph   68 % 0.0 in
19:41 19.4 °F 13.6 °F 1024.9 in Calm     69 % 0.0 in
19:46 19.2 °F 13.6 °F 1024.9 in Calm     70 % 0.0 in
19:51 19.0 °F 13.4 °F 1024.9 in Calm     70 % 0.0 in
19:56 18.9 °F 13.7 °F 1024.9 in Calm     72 % 0.0 in
20:01 18.8 °F 13.7 °F 1024.9 in WSW 3.5 mph   72 % 0.0 in
20:06 18.7 °F 13.6 °F 1024.9 in WSW 2.3 mph 2.3 mph 72 % 0.0 in
20:11 18.6 °F 13.4 °F 1026.0 in WSW 3.7 mph 3.7 mph 72 % 0.0 in
20:16 18.5 °F 13.6 °F 1026.0 in Calm     73 % 0.0 in
20:21 18.4 °F 13.7 °F 1026.0 in NW 1.9 mph 1.9 mph 74 % 0.0 in
20:26 18.3 °F 13.6 °F 1026.0 in NW 1.9 mph   74 % 0.0 in
20:31 18.3 °F 13.6 °F 1026.0 in Calm     74 % 0.0 in
20:36 18.2 °F 13.5 °F 1026.0 in Calm     74 % 0.0 in
20:41 18.1 °F 13.4 °F 1026.0 in Calm     74 % 0.0 in
20:46 18.1 °F 13.6 °F 1026.0 in Calm     75 % 0.0 in
20:51 18.0 °F 13.3 °F 1026.0 in Calm     74 % 0.0 in
20:56 17.9 °F 13.4 °F 1026.0 in Calm     75 % 0.0 in
21:01 17.9 °F 13.4 °F 1026.0 in Calm     75 % 0.0 in
21:06 17.7 °F 13.4 °F 1026.0 in NW 1.9 mph 1.9 mph 76 % 0.0 in
21:11 17.6 °F 13.3 °F 1026.0 in Calm     76 % 0.0 in
21:16 17.5 °F 13.0 °F 1026.0 in NW 1.9 mph   75 % 0.0 in
21:21 17.4 °F 13.1 °F 1026.0 in Calm     76 % 0.0 in
21:26 17.4 °F 13.1 °F 1026.0 in Calm     76 % 0.0 in
21:31 17.3 °F 13.2 °F 1026.0 in Calm     77 % 0.0 in
21:36 17.2 °F 13.1 °F 1026.0 in Calm     77 % 0.0 in
21:41 17.2 °F 13.1 °F 1026.0 in Calm     77 % 0.0 in
21:46 17.1 °F 13.1 °F 1026.0 in Calm     77 % 0.0 in
21:51 17.0 °F 12.9 °F 1026.0 in Calm     77 % 0.0 in
21:56 16.9 °F 13.2 °F 1026.0 in Calm     79 % 0.0 in
22:01 16.8 °F 13.1 °F 1026.0 in Calm     79 % 0.0 in
22:06 16.8 °F 13.1 °F 1026.0 in Calm     79 % 0.0 in
22:11 16.8 °F 13.1 °F 1026.0 in Calm     79 % 0.0 in
22:16 16.8 °F 13.1 °F 1026.0 in Calm     79 % 0.0 in
22:21 16.7 °F 13.2 °F 1026.0 in Calm     80 % 0.0 in
22:26 16.6 °F 12.9 °F 1026.0 in Calm     79 % 0.0 in
22:31 16.6 °F 13.1 °F 1026.0 in NW 1.9 mph   80 % 0.0 in
22:36 16.6 °F 13.1 °F 1026.0 in WNW 3.7 mph 3.7 mph 80 % 0.0 in
22:41 16.6 °F 13.1 °F 1024.9 in WNW 1.9 mph   80 % 0.0 in
23:08 16.1 °F 13.0 °F 1026.0 in Calm     82 % 0.0 in
23:13 16.0 °F 12.9 °F 1026.0 in Calm     82 % 0.0 in
23:18 15.9 °F 12.8 °F 1026.0 in Calm     82 % 0.0 in
23:23 15.9 °F 12.8 °F 1026.0 in Calm     82 % 0.0 in
23:28 15.8 °F 12.7 °F 1026.0 in Calm     82 % 0.0 in
23:33 15.7 °F 12.6 °F 1026.0 in Calm     82 % 0.0 in
23:38 15.6 °F 12.7 °F 1026.0 in Calm     83 % 0.0 in
23:43 15.6 °F 12.7 °F 1026.0 in Calm     83 % 0.0 in
23:48 15.5 °F 12.6 °F 1026.0 in Calm     83 % 0.0 in
23:53 15.5 °F 12.6 °F 1026.0 in Calm     83 % 0.0 in
23:58 15.3 °F 12.4 °F 1026.0 in Calm     83 % 0.0 in
Meteo Sesrovires
Elogis d' Weather Underground - 1.5 mb

Guio original per  Jim McMurry - jmcmurry@mwt.net Adaptat per a la plantilla per  Wim van der Kuil - Leuven-Template.eu

Trobareu la nostra informacio del temps tambe a:

Weather Underground

AWEKAS